createdAt,value
2022-09-28T00:00:23.028Z,1001.92
2022-09-28T00:00:53.606Z,1001.91
2022-09-28T00:01:24.289Z,1001.90
2022-09-28T00:01:54.983Z,1001.88
2022-09-28T00:02:25.731Z,1001.87
2022-09-28T00:02:56.448Z,1001.86
2022-09-28T00:03:26.061Z,1001.85
2022-09-28T00:03:57.693Z,1001.84
2022-09-28T00:04:28.267Z,1001.83
2022-09-28T00:04:58.832Z,1001.83
2022-09-28T00:05:29.390Z,1001.81
2022-09-28T00:06:00.034Z,1001.81
2022-09-28T00:06:30.562Z,1001.81
2022-09-28T00:07:01.160Z,1001.81
2022-09-28T00:07:31.132Z,1001.79
2022-09-28T00:08:02.949Z,1001.79
2022-09-28T00:08:33.506Z,1001.79
2022-09-28T00:09:04.073Z,1001.78
2022-09-28T00:09:34.663Z,1001.77
2022-09-28T00:10:05.253Z,1001.74
2022-09-28T00:10:35.791Z,1001.73
2022-09-28T00:11:06.350Z,1001.71
2022-09-28T00:11:36.921Z,1001.69
2022-09-28T00:12:07.493Z,1001.68
2022-09-28T00:12:37.504Z,1001.65
2022-09-28T00:13:09.112Z,1001.64
2022-09-28T00:13:39.700Z,1001.61
2022-09-28T00:14:10.275Z,1001.61
2022-09-28T00:14:41.045Z,1001.59
2022-09-28T00:15:11.591Z,1001.57
2022-09-28T00:15:42.143Z,1001.57
2022-09-28T00:16:12.728Z,1001.57
2022-09-28T00:16:43.357Z,1001.58
2022-09-28T00:17:13.946Z,1001.56
2022-09-28T00:17:44.470Z,1001.55
2022-09-28T00:18:15.018Z,1001.56
2022-09-28T00:18:45.589Z,1001.56
2022-09-28T00:19:16.252Z,1001.58
2022-09-28T00:19:46.944Z,1001.58
2022-09-28T00:20:17.510Z,1001.57
2022-09-28T00:20:47.492Z,1001.56
2022-09-28T00:21:18.224Z,1001.56
2022-09-28T00:21:49.846Z,1001.57
2022-09-28T00:22:19.650Z,1001.57
2022-09-28T00:22:51.449Z,1001.55
2022-09-28T00:23:22.482Z,1001.54
2022-09-28T00:23:53.058Z,1001.54
2022-09-28T00:24:27.460Z,1001.56
2022-09-28T00:24:54.613Z,1001.55
2022-09-28T00:25:25.194Z,1001.53
2022-09-28T00:25:55.767Z,1001.50
2022-09-28T00:26:26.334Z,1001.50
2022-09-28T00:26:57.085Z,1001.49
2022-09-28T00:27:27.613Z,1001.50
2022-09-28T00:27:58.270Z,1001.46
2022-09-28T00:28:28.799Z,1001.45
2022-09-28T00:28:58.566Z,1001.45
2022-09-28T00:29:30.185Z,1001.45
2022-09-28T00:30:00.759Z,1001.45
2022-09-28T00:30:31.316Z,1001.45
2022-09-28T00:31:02.063Z,1001.42
2022-09-28T00:31:32.926Z,1001.40
2022-09-28T00:32:03.546Z,1001.39
2022-09-28T00:32:34.113Z,1001.41
2022-09-28T00:33:03.856Z,1001.39
2022-09-28T00:33:35.507Z,1001.37
2022-09-28T00:34:06.065Z,1001.37
2022-09-28T00:34:36.665Z,1001.36
2022-09-28T00:35:07.211Z,1001.32
2022-09-28T00:35:37.828Z,1001.28
2022-09-28T00:36:08.408Z,1001.30
2022-09-28T00:37:17.928Z,1001.31
2022-09-28T00:37:24.741Z,1001.29
2022-09-28T00:37:55.292Z,1001.29
2022-09-28T00:38:25.839Z,1001.29
2022-09-28T00:38:55.630Z,1001.27
2022-09-28T00:39:27.244Z,1001.24
2022-09-28T00:39:57.787Z,1001.25
2022-09-28T00:40:28.378Z,1001.25
2022-09-28T00:40:59.064Z,1001.21
2022-09-28T00:41:29.634Z,1001.26
2022-09-28T00:41:59.375Z,1001.24
2022-09-28T00:42:30.215Z,1001.22
2022-09-28T00:43:01.851Z,1001.24
2022-09-28T00:43:32.438Z,1001.22
2022-09-28T00:44:02.993Z,1001.20
2022-09-28T00:44:33.653Z,1001.22
2022-09-28T00:45:03.525Z,1001.20
2022-09-28T00:45:35.218Z,1001.20
2022-09-28T00:46:05.902Z,1001.18
2022-09-28T00:46:36.494Z,1001.19
2022-09-28T00:47:06.242Z,1001.19
2022-09-28T00:47:37.890Z,1001.17
2022-09-28T00:48:08.793Z,1001.18
2022-09-28T00:48:38.312Z,1001.17
2022-09-28T00:49:09.920Z,1001.14
2022-09-28T00:49:40.498Z,1001.14
2022-09-28T00:50:11.170Z,1001.11
2022-09-28T00:50:41.748Z,1001.09
2022-09-28T00:51:11.478Z,1001.09
2022-09-28T00:51:43.049Z,1001.10
2022-09-28T00:52:12.592Z,1001.09
2022-09-28T00:52:43.252Z,1001.08
2022-09-28T00:53:14.827Z,1001.08
2022-09-28T00:53:45.374Z,1001.06
2022-09-28T00:54:15.901Z,1001.05
2022-09-28T00:54:46.451Z,1001.03
2022-09-28T00:55:17.015Z,1001.02
2022-09-28T00:55:47.610Z,1001.02
2022-09-28T00:56:21.304Z,1000.99
2022-09-28T00:56:48.969Z,1000.97
2022-09-28T00:57:19.560Z,1000.95
2022-09-28T00:57:50.084Z,1000.93
2022-09-28T00:58:20.666Z,1000.92
2022-09-28T00:58:51.230Z,1000.91
2022-09-28T00:59:21.757Z,1000.90
2022-09-28T00:59:52.335Z,1000.89
2022-09-28T01:00:23.020Z,1000.87
2022-09-28T01:00:53.849Z,1000.88
2022-09-28T01:01:24.610Z,1000.88
2022-09-28T01:01:55.235Z,1000.84
2022-09-28T01:02:25.137Z,1000.86
2022-09-28T01:02:56.754Z,1000.88
2022-09-28T01:03:27.324Z,1000.87
2022-09-28T01:03:58.107Z,1000.86
2022-09-28T01:04:30.042Z,1000.83
2022-09-28T01:05:00.500Z,1000.84
2022-09-28T01:05:28.971Z,1000.84
2022-09-28T01:06:00.541Z,1000.83
2022-09-28T01:06:30.563Z,1000.80
2022-09-28T01:07:02.215Z,1000.82
2022-09-28T01:07:32.986Z,1000.79
2022-09-28T01:08:02.767Z,1000.79
2022-09-28T01:08:34.382Z,1000.79
2022-09-28T01:09:04.910Z,1000.76
2022-09-28T01:09:34.907Z,1000.75
2022-09-28T01:10:06.501Z,1000.73
2022-09-28T01:10:36.245Z,1000.74
2022-09-28T01:11:07.891Z,1000.73
2022-09-28T01:11:38.468Z,1000.75
2022-09-28T01:12:09.034Z,1000.71
2022-09-28T01:12:39.592Z,1000.68
2022-09-28T01:13:10.118Z,1000.69
2022-09-28T01:13:40.668Z,1000.68
2022-09-28T01:14:10.257Z,1000.67
2022-09-28T01:14:41.860Z,1000.65
2022-09-28T01:15:12.527Z,1000.64
2022-09-28T01:15:43.071Z,1000.66
2022-09-28T01:16:13.015Z,1000.65
2022-09-28T01:16:44.753Z,1000.64
2022-09-28T01:17:14.197Z,1000.61
2022-09-28T01:17:45.814Z,1000.66
2022-09-28T01:18:16.386Z,1000.61
2022-09-28T01:18:46.950Z,1000.58
2022-09-28T01:19:17.629Z,1000.58
2022-09-28T01:19:47.235Z,1000.57
2022-09-28T01:20:18.848Z,1000.57
2022-09-28T01:20:49.445Z,1000.54
2022-09-28T01:21:20.043Z,1000.54
2022-09-28T01:21:50.614Z,1000.53
2022-09-28T01:22:21.180Z,1000.51
2022-09-28T01:22:51.745Z,1000.47
2022-09-28T01:23:22.351Z,1000.46
2022-09-28T01:23:52.088Z,1000.43
2022-09-28T01:24:23.643Z,1000.44
2022-09-28T01:24:54.211Z,1000.43
2022-09-28T01:25:23.978Z,1000.40
2022-09-28T01:25:55.583Z,1000.36
2022-09-28T01:26:26.169Z,1000.35
2022-09-28T01:26:56.312Z,1000.38
2022-09-28T01:27:27.882Z,1000.33
2022-09-28T01:27:57.926Z,1000.31
2022-09-28T01:28:29.537Z,1000.26
2022-09-28T01:28:59.126Z,1000.28
2022-09-28T01:29:29.820Z,1000.26
2022-09-28T01:30:01.405Z,1000.21
2022-09-28T01:30:31.145Z,1000.22
2022-09-28T01:31:02.758Z,1000.16
2022-09-28T01:31:33.371Z,1000.19
2022-09-28T01:32:04.031Z,1000.12
2022-09-28T01:32:34.633Z,1000.11
2022-09-28T01:33:05.180Z,1000.12
2022-09-28T01:33:35.961Z,1000.09
2022-09-28T01:34:06.550Z,1000.06
2022-09-28T01:34:36.304Z,1000.08
2022-09-28T01:35:07.321Z,1000.11
2022-09-28T01:35:38.923Z,1000.09
2022-09-28T01:36:09.464Z,1000.08
2022-09-28T01:36:39.234Z,1000.07
2022-09-28T01:37:10.777Z,1000.09
2022-09-28T01:37:41.337Z,1000.05
2022-09-28T01:38:11.915Z,1000.06
2022-09-28T01:38:41.642Z,1000.04
2022-09-28T01:39:12.433Z,1000.05
2022-09-28T01:39:44.056Z,1000.02
2022-09-28T01:40:14.071Z,1000.02
2022-09-28T01:40:45.747Z,1000.01
2022-09-28T01:41:16.306Z,1000.01
2022-09-28T01:41:46.877Z,1000.03
2022-09-28T01:42:16.652Z,1000.01
2022-09-28T01:42:47.173Z,999.97
2022-09-28T01:43:18.751Z,999.97
2022-09-28T01:43:49.316Z,999.94
2022-09-28T01:44:19.927Z,999.94
2022-09-28T01:44:50.495Z,999.91
2022-09-28T01:45:21.071Z,999.88
2022-09-28T01:45:51.645Z,999.88
2022-09-28T01:46:22.208Z,999.84
2022-09-28T01:46:52.520Z,999.82
2022-09-28T01:47:23.604Z,999.80
2022-09-28T01:47:54.138Z,999.80
2022-09-28T01:48:23.883Z,999.78
2022-09-28T01:48:55.473Z,999.78
2022-09-28T01:49:26.024Z,999.78
2022-09-28T01:49:56.586Z,999.77
2022-09-28T01:50:27.113Z,999.75
2022-09-28T01:50:59.428Z,999.78
2022-09-28T01:51:28.456Z,999.78
2022-09-28T01:51:59.038Z,999.74
2022-09-28T01:52:29.807Z,999.73
2022-09-28T01:53:00.400Z,999.71
2022-09-28T01:53:30.994Z,999.71
2022-09-28T01:54:01.585Z,999.71
2022-09-28T01:54:32.115Z,999.70
2022-09-28T01:55:01.854Z,999.71
2022-09-28T01:55:32.631Z,999.67
2022-09-28T01:56:03.419Z,999.64
2022-09-28T01:56:35.412Z,999.64
2022-09-28T01:57:05.955Z,999.66
2022-09-28T01:57:35.693Z,999.63
2022-09-28T01:58:07.300Z,999.62
2022-09-28T01:58:37.864Z,999.63
2022-09-28T01:59:07.639Z,999.63
2022-09-28T01:59:39.253Z,999.63
2022-09-28T02:00:08.770Z,999.60
2022-09-28T02:00:40.498Z,999.58
2022-09-28T02:01:11.122Z,999.61
2022-09-28T02:01:41.780Z,999.59
2022-09-28T02:02:12.480Z,999.60
2022-09-28T02:02:42.206Z,999.55
2022-09-28T02:03:13.850Z,999.56
2022-09-28T02:03:44.470Z,999.54
2022-09-28T02:04:15.054Z,999.54
2022-09-28T02:04:45.757Z,999.52
2022-09-28T02:05:16.339Z,999.50
2022-09-28T02:05:46.099Z,999.49
2022-09-28T02:06:17.717Z,999.48
2022-09-28T02:06:47.471Z,999.50
2022-09-28T02:07:18.427Z,999.47
2022-09-28T02:07:51.106Z,999.46
2022-09-28T02:08:20.852Z,999.45
2022-09-28T02:08:51.423Z,999.42
2022-09-28T02:09:21.980Z,999.41
2022-09-28T02:09:52.517Z,999.36
2022-09-28T02:10:23.108Z,999.34
2022-09-28T02:10:53.678Z,999.34
2022-09-28T02:11:23.717Z,999.36
2022-09-28T02:11:55.305Z,999.34
2022-09-28T02:12:25.985Z,999.32
2022-09-28T02:12:55.479Z,999.34
2022-09-28T02:13:26.269Z,999.30
2022-09-28T02:13:58.089Z,999.30
2022-09-28T02:14:28.732Z,999.31
2022-09-28T02:14:59.856Z,999.27
2022-09-28T02:15:29.383Z,999.22
2022-09-28T02:16:01.016Z,999.18
2022-09-28T02:16:31.635Z,999.14
2022-09-28T02:17:02.195Z,999.16
2022-09-28T02:17:32.759Z,999.17
2022-09-28T02:18:03.321Z,999.13
2022-09-28T02:18:33.859Z,999.11
2022-09-28T02:19:04.391Z,999.14
2022-09-28T02:19:34.167Z,999.09
2022-09-28T02:20:04.990Z,999.10
2022-09-28T02:20:36.616Z,999.12
2022-09-28T02:21:07.194Z,999.13
2022-09-28T02:21:38.082Z,999.09
2022-09-28T02:22:08.628Z,999.11
2022-09-28T02:22:39.207Z,999.11
2022-09-28T02:23:09.800Z,999.11
2022-09-28T02:23:40.366Z,999.09
2022-09-28T02:24:10.924Z,999.10
2022-09-28T02:24:40.687Z,999.10
2022-09-28T02:25:12.296Z,999.14
2022-09-28T02:25:43.888Z,999.10
2022-09-28T02:26:13.643Z,999.08
2022-09-28T02:26:44.192Z,999.09
2022-09-28T02:27:14.750Z,999.06
2022-09-28T02:27:45.313Z,999.04
2022-09-28T02:28:15.883Z,999.05
2022-09-28T02:28:46.466Z,999.02
2022-09-28T02:29:17.179Z,999.02
2022-09-28T02:29:47.782Z,999.03
2022-09-28T02:30:18.328Z,998.96
2022-09-28T02:30:48.900Z,999.00
2022-09-28T02:31:19.539Z,998.97
2022-09-28T02:31:50.250Z,998.91
2022-09-28T02:32:20.844Z,998.93
2022-09-28T02:32:51.393Z,998.91
2022-09-28T02:33:21.202Z,998.92
2022-09-28T02:33:52.814Z,998.92
2022-09-28T02:34:23.492Z,998.94
2022-09-28T02:34:54.080Z,998.92
2022-09-28T02:35:24.634Z,998.91
2022-09-28T02:35:55.169Z,998.92
2022-09-28T02:36:25.727Z,998.89
2022-09-28T02:36:56.253Z,998.86
2022-09-28T02:37:26.794Z,998.89
2022-09-28T02:37:57.568Z,998.89
2022-09-28T02:38:27.573Z,998.85
2022-09-28T02:38:59.204Z,998.94
2022-09-28T02:39:29.806Z,998.90
2022-09-28T02:40:00.430Z,998.87
2022-09-28T02:40:31.002Z,998.88
2022-09-28T02:41:01.618Z,998.86
2022-09-28T02:41:32.166Z,998.84
2022-09-28T02:42:02.947Z,998.78
2022-09-28T02:42:33.470Z,998.75
2022-09-28T02:43:04.042Z,998.76
2022-09-28T02:43:33.948Z,998.72
2022-09-28T02:44:05.573Z,998.72
2022-09-28T02:44:35.173Z,998.71
2022-09-28T02:45:06.795Z,998.70
2022-09-28T02:45:36.826Z,998.74
2022-09-28T02:46:07.675Z,998.78
2022-09-28T02:46:39.272Z,998.75
2022-09-28T02:47:09.840Z,998.73
2022-09-28T02:47:40.556Z,998.73
2022-09-28T02:48:11.334Z,998.74
2022-09-28T02:48:44.110Z,998.73
2022-09-28T02:49:22.094Z,998.80
2022-09-28T02:49:44.956Z,998.77
2022-09-28T02:50:13.788Z,998.74
2022-09-28T02:50:45.667Z,998.69
2022-09-28T02:51:16.228Z,998.71
2022-09-28T02:51:46.803Z,998.70
2022-09-28T02:52:17.373Z,998.70
2022-09-28T02:52:47.913Z,998.71
2022-09-28T02:53:18.473Z,998.70
2022-09-28T02:53:49.235Z,998.74
2022-09-28T02:54:19.256Z,998.71
2022-09-28T02:54:50.825Z,998.75
2022-09-28T02:55:21.492Z,998.72
2022-09-28T02:55:52.072Z,998.70
2022-09-28T02:56:22.640Z,998.71
2022-09-28T02:56:52.389Z,998.67
2022-09-28T02:57:23.999Z,998.70
2022-09-28T02:57:54.537Z,998.71
2022-09-28T02:58:25.082Z,998.69
2022-09-28T02:58:54.823Z,998.72
2022-09-28T02:59:26.394Z,998.70
2022-09-28T02:59:56.990Z,998.71
2022-09-28T03:00:27.607Z,998.67
2022-09-28T03:00:58.259Z,998.70
2022-09-28T03:01:28.089Z,998.68
2022-09-28T03:01:59.803Z,998.71
2022-09-28T03:02:30.394Z,998.71
2022-09-28T03:03:00.987Z,998.73
2022-09-28T03:03:31.555Z,998.72
2022-09-28T03:04:02.128Z,998.72
2022-09-28T03:04:32.686Z,998.71
2022-09-28T03:05:03.226Z,998.73
2022-09-28T03:05:33.792Z,998.74
2022-09-28T03:06:04.618Z,998.69
2022-09-28T03:06:35.196Z,998.63
2022-09-28T03:07:05.876Z,998.63
2022-09-28T03:07:36.723Z,998.63
2022-09-28T03:08:07.275Z,998.66
2022-09-28T03:08:37.870Z,998.55
2022-09-28T03:09:08.411Z,998.66
2022-09-28T03:09:38.992Z,998.63
2022-09-28T03:10:09.587Z,998.64
2022-09-28T03:10:40.382Z,998.58
2022-09-28T03:11:10.132Z,998.60
2022-09-28T03:11:41.761Z,998.60
2022-09-28T03:12:12.319Z,998.60
2022-09-28T03:12:42.883Z,998.61
2022-09-28T03:13:12.636Z,998.63
2022-09-28T03:13:44.236Z,998.53
2022-09-28T03:14:14.798Z,998.50
2022-09-28T03:14:45.576Z,998.55
2022-09-28T03:15:16.139Z,998.54
2022-09-28T03:15:49.004Z,998.50
2022-09-28T03:16:17.660Z,998.47
2022-09-28T03:16:47.517Z,998.47
2022-09-28T03:17:19.126Z,998.42
2022-09-28T03:17:49.910Z,998.42
2022-09-28T03:18:20.487Z,998.44
2022-09-28T03:18:50.028Z,998.41
2022-09-28T03:19:21.625Z,998.41
2022-09-28T03:19:51.373Z,998.42
2022-09-28T03:20:23.021Z,998.41
2022-09-28T03:20:53.817Z,998.38
2022-09-28T03:21:24.425Z,998.42
2022-09-28T03:21:55.014Z,998.42
2022-09-28T03:22:25.540Z,998.44
2022-09-28T03:23:22.704Z,998.43
2022-09-28T03:23:27.048Z,998.40
2022-09-28T03:23:57.860Z,998.42
2022-09-28T03:24:28.431Z,998.42
2022-09-28T03:24:58.994Z,998.41
2022-09-28T03:25:29.568Z,998.41
2022-09-28T03:26:00.145Z,998.40
2022-09-28T03:26:30.732Z,998.38
2022-09-28T03:27:01.303Z,998.43
2022-09-28T03:27:31.070Z,998.45
2022-09-28T03:28:02.692Z,998.39
2022-09-28T03:28:33.227Z,998.39
2022-09-28T03:29:03.811Z,998.38
2022-09-28T03:29:33.359Z,998.36
2022-09-28T03:30:04.975Z,998.39
2022-09-28T03:30:35.527Z,998.34
2022-09-28T03:31:05.315Z,998.36
2022-09-28T03:31:35.983Z,998.34
2022-09-28T03:32:07.613Z,998.34
2022-09-28T03:32:38.347Z,998.32
2022-09-28T03:33:08.888Z,998.33
2022-09-28T03:33:38.646Z,998.32
2022-09-28T03:34:10.484Z,998.30
2022-09-28T03:34:40.197Z,998.30
2022-09-28T03:35:11.811Z,998.31
2022-09-28T03:35:42.397Z,998.32
2022-09-28T03:36:12.972Z,998.29
2022-09-28T03:36:42.521Z,998.26
2022-09-28T03:37:14.229Z,998.30
2022-09-28T03:37:44.774Z,998.31
2022-09-28T03:38:15.381Z,998.29
2022-09-28T03:38:46.162Z,998.31
2022-09-28T03:39:16.898Z,998.27
2022-09-28T03:39:47.505Z,998.29
2022-09-28T03:40:18.338Z,998.28
2022-09-28T03:40:48.209Z,998.23
2022-09-28T03:41:19.976Z,998.29
2022-09-28T03:41:49.984Z,998.25
2022-09-28T03:42:21.044Z,998.23
2022-09-28T03:42:51.563Z,998.23
2022-09-28T03:43:23.183Z,998.25
2022-09-28T03:43:53.729Z,998.23
2022-09-28T03:44:24.279Z,998.23
2022-09-28T03:44:54.842Z,998.22
2022-09-28T03:45:25.533Z,998.29
2022-09-28T03:45:55.429Z,998.26
2022-09-28T03:46:26.018Z,998.31
2022-09-28T03:46:57.582Z,998.26
2022-09-28T03:47:28.149Z,998.28
2022-09-28T03:47:57.814Z,998.25
2022-09-28T03:48:32.061Z,998.26
2022-09-28T03:49:00.208Z,998.23
2022-09-28T03:49:29.950Z,998.20
2022-09-28T03:50:01.568Z,998.21
2022-09-28T03:50:32.264Z,998.21
2022-09-28T03:51:02.809Z,998.18
2022-09-28T03:51:33.592Z,998.12
2022-09-28T03:52:04.177Z,998.12
2022-09-28T03:52:34.172Z,998.12
2022-09-28T03:53:05.769Z,998.11
2022-09-28T03:53:35.365Z,998.07
2022-09-28T03:54:06.977Z,998.11
2022-09-28T03:54:37.555Z,998.04
2022-09-28T03:55:08.085Z,998.03
2022-09-28T03:55:38.733Z,998.02
2022-09-28T03:56:09.447Z,998.00
2022-09-28T03:56:40.045Z,998.04
2022-09-28T03:57:10.576Z,998.00
2022-09-28T03:57:41.148Z,997.99
2022-09-28T03:58:11.086Z,997.98
2022-09-28T03:58:42.695Z,998.00
2022-09-28T03:59:13.268Z,997.97
2022-09-28T03:59:43.818Z,997.98
2022-09-28T04:00:13.366Z,997.92
2022-09-28T04:00:45.305Z,997.90
2022-09-28T04:01:17.642Z,997.90
2022-09-28T04:01:46.497Z,997.91
2022-09-28T04:02:16.113Z,997.93
2022-09-28T04:02:46.864Z,997.92
2022-09-28T04:03:18.678Z,997.90
2022-09-28T04:03:49.253Z,997.86
2022-09-28T04:04:19.791Z,997.83
2022-09-28T04:04:50.359Z,997.83
2022-09-28T04:05:20.928Z,997.83
2022-09-28T04:05:50.669Z,997.85
2022-09-28T04:06:21.478Z,997.86
2022-09-28T04:06:52.281Z,997.85
2022-09-28T04:07:23.071Z,997.86
2022-09-28T04:07:54.658Z,997.88
2022-09-28T04:08:25.191Z,997.87
2022-09-28T04:08:55.194Z,997.87
2022-09-28T04:09:26.807Z,997.89
2022-09-28T04:09:56.798Z,997.88
2022-09-28T04:10:28.410Z,997.83
2022-09-28T04:10:58.990Z,997.84
2022-09-28T04:11:38.485Z,997.84
2022-09-28T04:12:04.119Z,997.82
2022-09-28T04:12:30.123Z,997.80
2022-09-28T04:13:01.744Z,997.80
2022-09-28T04:13:32.267Z,997.75
2022-09-28T04:14:02.841Z,997.76
2022-09-28T04:14:32.366Z,997.77
2022-09-28T04:15:03.988Z,997.76
2022-09-28T04:15:33.753Z,997.76
2022-09-28T04:16:05.559Z,997.77
2022-09-28T04:16:36.172Z,997.76
2022-09-28T04:17:06.703Z,997.74
2022-09-28T04:17:40.139Z,997.72
2022-09-28T04:18:06.988Z,997.74
2022-09-28T04:18:41.766Z,997.73
2022-09-28T04:19:09.153Z,997.70
2022-09-28T04:19:41.830Z,997.70
2022-09-28T04:20:10.300Z,997.68
2022-09-28T04:20:40.034Z,997.65
2022-09-28T04:21:11.674Z,997.65
2022-09-28T04:21:42.250Z,997.60
2022-09-28T04:22:12.783Z,997.60
2022-09-28T04:22:43.385Z,997.61
2022-09-28T04:23:13.144Z,997.60
2022-09-28T04:23:43.936Z,997.60
2022-09-28T04:24:15.751Z,997.63
2022-09-28T04:24:46.301Z,997.63
2022-09-28T04:25:17.076Z,997.60
2022-09-28T04:25:47.644Z,997.57
2022-09-28T04:26:18.218Z,997.60
2022-09-28T04:26:48.492Z,997.59
2022-09-28T04:27:19.566Z,997.57
2022-09-28T04:27:50.099Z,997.52
2022-09-28T04:28:20.896Z,997.55
2022-09-28T04:28:51.434Z,997.54
2022-09-28T04:29:22.223Z,997.53
2022-09-28T04:29:51.920Z,997.55
2022-09-28T04:30:22.786Z,997.56
2022-09-28T04:30:54.426Z,997.54
2022-09-28T04:31:24.983Z,997.55
2022-09-28T04:31:55.816Z,997.55
2022-09-28T04:32:26.403Z,997.57
2022-09-28T04:32:57.012Z,997.55
2022-09-28T04:33:26.541Z,997.55
2022-09-28T04:33:57.326Z,997.57
2022-09-28T04:34:31.910Z,997.58
2022-09-28T04:34:59.945Z,997.57
2022-09-28T04:35:30.548Z,997.55
2022-09-28T04:36:01.143Z,997.57
2022-09-28T04:36:30.663Z,997.58
2022-09-28T04:38:41.541Z,997.55
2022-09-28T04:38:53.755Z,997.55
2022-09-28T04:39:23.810Z,997.56
2022-09-28T04:39:54.369Z,997.56
2022-09-28T04:40:25.030Z,997.54
2022-09-28T04:40:55.687Z,997.53
2022-09-28T04:41:26.250Z,997.53
2022-09-28T04:41:56.803Z,997.53
2022-09-28T04:42:27.412Z,997.51
2022-09-28T04:42:57.963Z,997.50
2022-09-28T04:43:28.526Z,997.48
2022-09-28T04:43:59.045Z,997.47
2022-09-28T04:44:29.646Z,997.48
2022-09-28T04:45:00.195Z,997.48
2022-09-28T04:45:30.805Z,997.51
2022-09-28T04:46:01.422Z,997.49
2022-09-28T04:46:31.988Z,997.50
2022-09-28T04:47:05.186Z,997.44
2022-09-28T04:47:33.400Z,997.43
2022-09-28T04:48:03.901Z,997.44
2022-09-28T04:48:34.428Z,997.46
2022-09-28T04:49:05.462Z,997.41
2022-09-28T04:49:36.028Z,997.41
2022-09-28T04:50:06.607Z,997.42
2022-09-28T04:50:37.150Z,997.44
2022-09-28T04:51:07.674Z,997.41
2022-09-28T04:51:38.678Z,997.41
2022-09-28T04:52:11.666Z,997.45
2022-09-28T04:52:40.461Z,997.44
2022-09-28T04:53:10.952Z,997.39
2022-09-28T04:53:42.031Z,997.42
2022-09-28T04:54:12.596Z,997.43
2022-09-28T04:54:43.153Z,997.42
2022-09-28T04:55:13.699Z,997.41
2022-09-28T04:55:44.280Z,997.40
2022-09-28T04:56:14.817Z,997.43
2022-09-28T04:56:45.350Z,997.39
2022-09-28T04:57:16.402Z,997.38
2022-09-28T04:57:46.945Z,997.39
2022-09-28T04:58:17.445Z,997.37
2022-09-28T04:58:52.585Z,997.34
2022-09-28T04:59:19.195Z,997.34
2022-09-28T04:59:50.185Z,997.33
2022-09-28T05:00:21.204Z,997.35
2022-09-28T05:00:51.737Z,997.32
2022-09-28T05:01:22.353Z,997.32
2022-09-28T05:01:52.940Z,997.34
2022-09-28T05:02:23.500Z,997.30
2022-09-28T05:02:54.006Z,997.30
2022-09-28T05:03:25.980Z,997.32
2022-09-28T05:03:55.929Z,997.34
2022-09-28T05:04:26.960Z,997.30
2022-09-28T05:04:57.485Z,997.33
2022-09-28T05:05:28.002Z,997.30
2022-09-28T05:05:59.037Z,997.31
2022-09-28T05:06:29.591Z,997.31
2022-09-28T05:07:00.117Z,997.31
2022-09-28T05:07:31.176Z,997.29
2022-09-28T05:08:01.705Z,997.31
2022-09-28T05:08:32.246Z,997.31
2022-09-28T05:09:02.778Z,997.30
2022-09-28T05:09:37.694Z,997.33
2022-09-28T05:10:04.787Z,997.29
2022-09-28T05:10:35.790Z,997.31
2022-09-28T05:11:06.320Z,997.27
2022-09-28T05:11:37.358Z,997.26
2022-09-28T05:12:08.356Z,997.30
2022-09-28T05:12:39.377Z,997.26
2022-09-28T05:13:10.403Z,997.27
2022-09-28T05:13:40.907Z,997.30
2022-09-28T05:14:11.925Z,997.28
2022-09-28T05:14:42.468Z,997.29
2022-09-28T05:15:12.996Z,997.32
2022-09-28T05:15:43.996Z,997.29
2022-09-28T05:16:15.083Z,997.30
2022-09-28T05:16:45.664Z,997.31
2022-09-28T05:17:16.250Z,997.29
2022-09-28T05:17:47.246Z,997.33
2022-09-28T05:18:18.260Z,997.30
2022-09-28T05:18:49.263Z,997.30
2022-09-28T05:19:20.279Z,997.32
2022-09-28T05:19:50.816Z,997.32
2022-09-28T05:20:21.336Z,997.33
2022-09-28T05:20:51.865Z,997.36
2022-09-28T05:21:22.383Z,997.37
2022-09-28T05:21:52.910Z,997.36
2022-09-28T05:22:23.455Z,997.36
2022-09-28T05:22:54.070Z,997.37
2022-09-28T05:23:24.573Z,997.36
2022-09-28T05:23:55.607Z,997.35
2022-09-28T05:24:26.160Z,997.37
2022-09-28T05:24:56.666Z,997.36
2022-09-28T05:25:27.701Z,997.35
2022-09-28T05:25:58.232Z,997.32
2022-09-28T05:26:29.268Z,997.32
2022-09-28T05:26:59.796Z,997.29
2022-09-28T05:27:30.814Z,997.29
2022-09-28T05:28:01.836Z,997.27
2022-09-28T05:28:32.397Z,997.28
2022-09-28T05:29:03.386Z,997.31
2022-09-28T05:29:34.384Z,997.24
2022-09-28T05:30:05.402Z,997.26
2022-09-28T05:30:36.410Z,997.24
2022-09-28T05:31:07.429Z,997.26
2022-09-28T05:31:38.001Z,997.26
2022-09-28T05:32:08.647Z,997.27
2022-09-28T05:32:39.170Z,997.27
2022-09-28T05:33:09.722Z,997.25
2022-09-28T05:33:40.268Z,997.25
2022-09-28T05:34:10.784Z,997.27
2022-09-28T05:34:41.315Z,997.28
2022-09-28T05:35:11.839Z,997.27
2022-09-28T05:35:42.370Z,997.24
2022-09-28T05:36:12.897Z,997.24
2022-09-28T05:36:43.416Z,997.26
2022-09-28T05:37:14.431Z,997.24
2022-09-28T05:37:44.950Z,997.23
2022-09-28T05:38:16.024Z,997.25
2022-09-28T05:38:46.539Z,997.26
2022-09-28T05:39:17.193Z,997.28
2022-09-28T05:39:47.737Z,997.26
2022-09-28T05:40:18.832Z,997.24
2022-09-28T05:40:50.200Z,997.21
2022-09-28T05:41:20.213Z,997.22
2022-09-28T05:41:51.245Z,997.22
2022-09-28T05:42:21.769Z,997.21
2022-09-28T05:42:52.288Z,997.21
2022-09-28T05:43:22.824Z,997.24
2022-09-28T05:43:53.404Z,997.25
2022-09-28T05:44:23.878Z,997.26
2022-09-28T05:44:54.899Z,997.29
2022-09-28T05:45:25.577Z,997.28
2022-09-28T05:45:56.203Z,997.28
2022-09-28T05:46:26.840Z,997.28
2022-09-28T05:46:57.375Z,997.31
2022-09-28T05:47:28.402Z,997.32
2022-09-28T05:47:59.445Z,997.32
2022-09-28T05:48:30.465Z,997.34
2022-09-28T05:49:01.005Z,997.33
2022-09-28T05:49:31.543Z,997.36
2022-09-28T05:50:02.071Z,997.37
2022-09-28T05:50:32.607Z,997.39
2022-09-28T05:51:03.630Z,997.32
2022-09-28T05:51:34.166Z,997.36
2022-09-28T05:52:05.175Z,997.39
2022-09-28T05:52:35.703Z,997.39
2022-09-28T05:53:06.224Z,997.30
2022-09-28T05:53:37.243Z,997.33
2022-09-28T05:54:08.300Z,997.30
2022-09-28T05:54:38.833Z,997.31
2022-09-28T05:55:09.350Z,997.30
2022-09-28T05:55:40.372Z,997.32
2022-09-28T05:56:11.383Z,997.33
2022-09-28T05:56:42.418Z,997.34
2022-09-28T05:57:12.929Z,997.36
2022-09-28T05:57:43.968Z,997.34
2022-09-28T05:58:14.488Z,997.32
2022-09-28T05:58:45.032Z,997.34
2022-09-28T05:59:15.655Z,997.32
2022-09-28T05:59:46.190Z,997.33
2022-09-28T06:00:16.697Z,997.33
2022-09-28T06:00:54.606Z,997.34
2022-09-28T06:01:18.397Z,997.32
2022-09-28T06:01:48.953Z,997.31
2022-09-28T06:02:19.556Z,997.30
2022-09-28T06:02:50.186Z,997.30
2022-09-28T06:03:20.679Z,997.28
2022-09-28T06:03:51.722Z,997.26
2022-09-28T06:04:22.239Z,997.26
2022-09-28T06:04:53.255Z,997.27
2022-09-28T06:05:24.257Z,997.26
2022-09-28T06:05:55.284Z,997.23
2022-09-28T06:06:25.887Z,997.24
2022-09-28T06:06:56.361Z,997.26
2022-09-28T06:07:27.401Z,997.23
2022-09-28T06:07:57.920Z,997.22
2022-09-28T06:08:28.935Z,997.20
2022-09-28T06:08:59.448Z,997.22
2022-09-28T06:09:30.497Z,997.19
2022-09-28T06:10:01.033Z,997.19
2022-09-28T06:10:31.536Z,997.18
2022-09-28T06:11:02.576Z,997.17
2022-09-28T06:11:33.058Z,997.17
2022-09-28T06:12:04.074Z,997.19
2022-09-28T06:12:34.596Z,997.17
2022-09-28T06:13:05.620Z,997.14
2022-09-28T06:13:36.632Z,997.12
2022-09-28T06:14:07.153Z,997.11
2022-09-28T06:14:38.190Z,997.12
2022-09-28T06:15:09.204Z,997.12
2022-09-28T06:15:39.702Z,997.11
2022-09-28T06:16:10.319Z,997.16
2022-09-28T06:16:43.834Z,997.17
2022-09-28T06:17:11.451Z,997.19
2022-09-28T06:17:41.964Z,997.19
2022-09-28T06:18:12.970Z,997.19
2022-09-28T06:18:43.996Z,997.18
2022-09-28T06:19:15.003Z,997.21
2022-09-28T06:19:46.035Z,997.19
2022-09-28T06:20:17.049Z,997.17
2022-09-28T06:20:47.578Z,997.22
2022-09-28T06:21:18.638Z,997.22